<?xml version="1.0" encoding="UTF-8" standalone="no" ?>
<gpx xmlns="http://www.topografix.com/GPX/1/1" xmlns:xsi="http://www.w3.org/2001/XMLSchema-instance" xsi:schemaLocation="http://www.topografix.com/GPX/1/1 http://www.topografix.com/GPX/1/1/gpx.xsd" version="1.1" creator="VisuGPX - https://www.visugpx.com">
  <metadata>
    <name>balade arlay</name>
    <desc><![CDATA[balade autour d arlay]]></desc>
  </metadata>
  <trk>
    <name><![CDATA[2021-01-07 12:33:46]]></name>
    <trkseg>
      <trkpt lat="46.76071" lon="5.52431">
        <ele>235.18</ele>
        <time>2021-01-07T11:09:32Z</time>
      </trkpt>
      <trkpt lat="46.76071" lon="5.52431">
        <ele>235.18</ele>
        <time>2021-01-07T11:09:33Z</time>
      </trkpt>
      <trkpt lat="46.76073" lon="5.52437">
        <ele>235.18</ele>
        <time>2021-01-07T11:09:46Z</time>
      </trkpt>
      <trkpt lat="46.76075" lon="5.52445">
        <ele>235.66</ele>
        <time>2021-01-07T11:09:52Z</time>
      </trkpt>
      <trkpt lat="46.76075" lon="5.52463">
        <ele>234.22</ele>
        <time>2021-01-07T11:10:05Z</time>
      </trkpt>
      <trkpt lat="46.76076" lon="5.52482">
        <ele>234.22</ele>
        <time>2021-01-07T11:10:17Z</time>
      </trkpt>
      <trkpt lat="46.76077" lon="5.52501">
        <ele>235.66</ele>
        <time>2021-01-07T11:10:24Z</time>
      </trkpt>
      <trkpt lat="46.7608" lon="5.52524">
        <ele>235.66</ele>
        <time>2021-01-07T11:10:38Z</time>
      </trkpt>
      <trkpt lat="46.76082" lon="5.52551">
        <ele>235.66</ele>
        <time>2021-01-07T11:10:54Z</time>
      </trkpt>
      <trkpt lat="46.76081" lon="5.52585">
        <ele>235.66</ele>
        <time>2021-01-07T11:11:12Z</time>
      </trkpt>
      <trkpt lat="46.76075" lon="5.52634">
        <ele>235.18</ele>
        <time>2021-01-07T11:11:36Z</time>
      </trkpt>
      <trkpt lat="46.76071" lon="5.52657">
        <ele>235.18</ele>
        <time>2021-01-07T11:11:46Z</time>
      </trkpt>
      <trkpt lat="46.76073" lon="5.52688">
        <ele>235.18</ele>
        <time>2021-01-07T11:12:02Z</time>
      </trkpt>
      <trkpt lat="46.76079" lon="5.5272">
        <ele>234.7</ele>
        <time>2021-01-07T11:12:20Z</time>
      </trkpt>
      <trkpt lat="46.76082" lon="5.52729">
        <ele>234.7</ele>
        <time>2021-01-07T11:12:25Z</time>
      </trkpt>
      <trkpt lat="46.76089" lon="5.5276">
        <ele>235.18</ele>
        <time>2021-01-07T11:12:43Z</time>
      </trkpt>
      <trkpt lat="46.76094" lon="5.52785">
        <ele>234.7</ele>
        <time>2021-01-07T11:12:58Z</time>
      </trkpt>
      <trkpt lat="46.76099" lon="5.52805">
        <ele>234.7</ele>
        <time>2021-01-07T11:13:13Z</time>
      </trkpt>
      <trkpt lat="46.76099" lon="5.52807">
        <ele>234.7</ele>
        <time>2021-01-07T11:13:15Z</time>
      </trkpt>
      <trkpt lat="46.76105" lon="5.52833">
        <ele>234.22</ele>
        <time>2021-01-07T11:13:32Z</time>
      </trkpt>
      <trkpt lat="46.76105" lon="5.52864">
        <ele>234.22</ele>
        <time>2021-01-07T11:13:51Z</time>
      </trkpt>
      <trkpt lat="46.76104" lon="5.52876">
        <ele>234.7</ele>
        <time>2021-01-07T11:13:57Z</time>
      </trkpt>
      <trkpt lat="46.76097" lon="5.52907">
        <ele>234.7</ele>
        <time>2021-01-07T11:14:13Z</time>
      </trkpt>
      <trkpt lat="46.76097" lon="5.52912">
        <ele>236.14</ele>
        <time>2021-01-07T11:14:18Z</time>
      </trkpt>
      <trkpt lat="46.76097" lon="5.52915">
        <ele>234.7</ele>
        <time>2021-01-07T11:14:22Z</time>
      </trkpt>
      <trkpt lat="46.7609" lon="5.52935">
        <ele>234.7</ele>
        <time>2021-01-07T11:14:35Z</time>
      </trkpt>
      <trkpt lat="46.76088" lon="5.52939">
        <ele>234.22</ele>
        <time>2021-01-07T11:14:37Z</time>
      </trkpt>
      <trkpt lat="46.76081" lon="5.52961">
        <ele>234.22</ele>
        <time>2021-01-07T11:14:53Z</time>
      </trkpt>
      <trkpt lat="46.76072" lon="5.52984">
        <ele>233.74</ele>
        <time>2021-01-07T11:15:04Z</time>
      </trkpt>
      <trkpt lat="46.76066" lon="5.52989">
        <ele>233.74</ele>
        <time>2021-01-07T11:15:21Z</time>
      </trkpt>
      <trkpt lat="46.76063" lon="5.52998">
        <ele>233.26</ele>
        <time>2021-01-07T11:15:42Z</time>
      </trkpt>
      <trkpt lat="46.76066" lon="5.53012">
        <ele>233.74</ele>
        <time>2021-01-07T11:16:04Z</time>
      </trkpt>
      <trkpt lat="46.76065" lon="5.52998">
        <ele>233.26</ele>
        <time>2021-01-07T11:16:29Z</time>
      </trkpt>
      <trkpt lat="46.76057" lon="5.53021">
        <ele>232.3</ele>
        <time>2021-01-07T11:16:57Z</time>
      </trkpt>
      <trkpt lat="46.76063" lon="5.53037">
        <ele>231.81</ele>
        <time>2021-01-07T11:17:37Z</time>
      </trkpt>
      <trkpt lat="46.7607" lon="5.53029">
        <ele>231.81</ele>
        <time>2021-01-07T11:17:52Z</time>
      </trkpt>
      <trkpt lat="46.76063" lon="5.5301">
        <ele>231.33</ele>
        <time>2021-01-07T11:18:05Z</time>
      </trkpt>
      <trkpt lat="46.76067" lon="5.53007">
        <ele>231.33</ele>
        <time>2021-01-07T11:18:21Z</time>
      </trkpt>
      <trkpt lat="46.76074" lon="5.53002">
        <ele>231.33</ele>
        <time>2021-01-07T11:18:37Z</time>
      </trkpt>
      <trkpt lat="46.7608" lon="5.52997">
        <ele>231.33</ele>
        <time>2021-01-07T11:18:55Z</time>
      </trkpt>
      <trkpt lat="46.76085" lon="5.52994">
        <ele>230.85</ele>
        <time>2021-01-07T11:19:20Z</time>
      </trkpt>
      <trkpt lat="46.76089" lon="5.52991">
        <ele>230.85</ele>
        <time>2021-01-07T11:19:37Z</time>
      </trkpt>
      <trkpt lat="46.76095" lon="5.52991">
        <ele>230.85</ele>
        <time>2021-01-07T11:20:02Z</time>
      </trkpt>
      <trkpt lat="46.76095" lon="5.52985">
        <ele>230.37</ele>
        <time>2021-01-07T11:20:16Z</time>
      </trkpt>
      <trkpt lat="46.76089" lon="5.52988">
        <ele>230.37</ele>
        <time>2021-01-07T11:20:28Z</time>
      </trkpt>
      <trkpt lat="46.76081" lon="5.52985">
        <ele>230.37</ele>
        <time>2021-01-07T11:20:42Z</time>
      </trkpt>
      <trkpt lat="46.76074" lon="5.52988">
        <ele>230.37</ele>
        <time>2021-01-07T11:20:57Z</time>
      </trkpt>
      <trkpt lat="46.76071" lon="5.52991">
        <ele>230.37</ele>
        <time>2021-01-07T11:21:12Z</time>
      </trkpt>
      <trkpt lat="46.76067" lon="5.52994">
        <ele>230.85</ele>
        <time>2021-01-07T11:21:33Z</time>
      </trkpt>
      <trkpt lat="46.76066" lon="5.52999">
        <ele>230.37</ele>
        <time>2021-01-07T11:21:50Z</time>
      </trkpt>
      <trkpt lat="46.76066" lon="5.5301">
        <ele>230.37</ele>
        <time>2021-01-07T11:22:09Z</time>
      </trkpt>
      <trkpt lat="46.76061" lon="5.52995">
        <ele>230.37</ele>
        <time>2021-01-07T11:22:29Z</time>
      </trkpt>
      <trkpt lat="46.76053" lon="5.53009">
        <ele>230.37</ele>
        <time>2021-01-07T11:22:52Z</time>
      </trkpt>
      <trkpt lat="46.76056" lon="5.53011">
        <ele>230.37</ele>
        <time>2021-01-07T11:23:08Z</time>
      </trkpt>
      <trkpt lat="46.76062" lon="5.53004">
        <ele>230.37</ele>
        <time>2021-01-07T11:23:27Z</time>
      </trkpt>
      <trkpt lat="46.76065" lon="5.53015">
        <ele>230.37</ele>
        <time>2021-01-07T11:23:50Z</time>
      </trkpt>
      <trkpt lat="46.76064" lon="5.53008">
        <ele>230.37</ele>
        <time>2021-01-07T11:24:12Z</time>
      </trkpt>
      <trkpt lat="46.76073" lon="5.53007">
        <ele>230.37</ele>
        <time>2021-01-07T11:24:40Z</time>
      </trkpt>
      <trkpt lat="46.76076" lon="5.53003">
        <ele>229.89</ele>
        <time>2021-01-07T11:25:01Z</time>
      </trkpt>
      <trkpt lat="46.76081" lon="5.52996">
        <ele>229.89</ele>
        <time>2021-01-07T11:25:22Z</time>
      </trkpt>
      <trkpt lat="46.76091" lon="5.52981">
        <ele>229.89</ele>
        <time>2021-01-07T11:25:43Z</time>
      </trkpt>
      <trkpt lat="46.76098" lon="5.52971">
        <ele>229.89</ele>
        <time>2021-01-07T11:26:00Z</time>
      </trkpt>
      <trkpt lat="46.76094" lon="5.5295">
        <ele>229.89</ele>
        <time>2021-01-07T11:26:24Z</time>
      </trkpt>
      <trkpt lat="46.76093" lon="5.52939">
        <ele>229.89</ele>
        <time>2021-01-07T11:26:47Z</time>
      </trkpt>
      <trkpt lat="46.76102" lon="5.52924">
        <ele>229.89</ele>
        <time>2021-01-07T11:27:08Z</time>
      </trkpt>
      <trkpt lat="46.76103" lon="5.52915">
        <ele>228.45</ele>
        <time>2021-01-07T11:27:25Z</time>
      </trkpt>
      <trkpt lat="46.76105" lon="5.52906">
        <ele>228.45</ele>
        <time>2021-01-07T11:27:44Z</time>
      </trkpt>
      <trkpt lat="46.76096" lon="5.52913">
        <ele>228.45</ele>
        <time>2021-01-07T11:28:01Z</time>
      </trkpt>
      <trkpt lat="46.76095" lon="5.52924">
        <ele>228.45</ele>
        <time>2021-01-07T11:28:16Z</time>
      </trkpt>
      <trkpt lat="46.76091" lon="5.52934">
        <ele>227.97</ele>
        <time>2021-01-07T11:28:32Z</time>
      </trkpt>
      <trkpt lat="46.7608" lon="5.52957">
        <ele>227.97</ele>
        <time>2021-01-07T11:28:52Z</time>
      </trkpt>
      <trkpt lat="46.76076" lon="5.52967">
        <ele>227.97</ele>
        <time>2021-01-07T11:29:06Z</time>
      </trkpt>
      <trkpt lat="46.76069" lon="5.52982">
        <ele>227.97</ele>
        <time>2021-01-07T11:29:23Z</time>
      </trkpt>
      <trkpt lat="46.76064" lon="5.52993">
        <ele>227.97</ele>
        <time>2021-01-07T11:29:37Z</time>
      </trkpt>
      <trkpt lat="46.76064" lon="5.53003">
        <ele>228.93</ele>
        <time>2021-01-07T11:29:52Z</time>
      </trkpt>
      <trkpt lat="46.76059" lon="5.53021">
        <ele>228.93</ele>
        <time>2021-01-07T11:30:12Z</time>
      </trkpt>
      <trkpt lat="46.7607" lon="5.53002">
        <ele>228.93</ele>
        <time>2021-01-07T11:30:32Z</time>
      </trkpt>
      <trkpt lat="46.76066" lon="5.52995">
        <ele>228.45</ele>
        <time>2021-01-07T11:30:48Z</time>
      </trkpt>
      <trkpt lat="46.76067" lon="5.52989">
        <ele>228.45</ele>
        <time>2021-01-07T11:31:08Z</time>
      </trkpt>
      <trkpt lat="46.76062" lon="5.53001">
        <ele>228.45</ele>
        <time>2021-01-07T11:31:28Z</time>
      </trkpt>
      <trkpt lat="46.7606" lon="5.53004">
        <ele>228.45</ele>
        <time>2021-01-07T11:31:49Z</time>
      </trkpt>
      <trkpt lat="46.76062" lon="5.52992">
        <ele>227.97</ele>
        <time>2021-01-07T11:32:06Z</time>
      </trkpt>
      <trkpt lat="46.76075" lon="5.52971">
        <ele>227.97</ele>
        <time>2021-01-07T11:32:24Z</time>
      </trkpt>
      <trkpt lat="46.76083" lon="5.5296">
        <ele>228.45</ele>
        <time>2021-01-07T11:32:34Z</time>
      </trkpt>
      <trkpt lat="46.76102" lon="5.52936">
        <ele>228.45</ele>
        <time>2021-01-07T11:32:49Z</time>
      </trkpt>
      <trkpt lat="46.76106" lon="5.52915">
        <ele>228.45</ele>
        <time>2021-01-07T11:33:04Z</time>
      </trkpt>
      <trkpt lat="46.76124" lon="5.52909">
        <ele>227.97</ele>
        <time>2021-01-07T11:33:20Z</time>
      </trkpt>
      <trkpt lat="46.76154" lon="5.52908">
        <ele>227.97</ele>
        <time>2021-01-07T11:33:40Z</time>
      </trkpt>
      <trkpt lat="46.76189" lon="5.52911">
        <ele>228.45</ele>
        <time>2021-01-07T11:34:03Z</time>
      </trkpt>
      <trkpt lat="46.7621" lon="5.52924">
        <ele>228.45</ele>
        <time>2021-01-07T11:34:17Z</time>
      </trkpt>
      <trkpt lat="46.76211" lon="5.52951">
        <ele>228.45</ele>
        <time>2021-01-07T11:34:31Z</time>
      </trkpt>
      <trkpt lat="46.76211" lon="5.52981">
        <ele>227.97</ele>
        <time>2021-01-07T11:34:44Z</time>
      </trkpt>
      <trkpt lat="46.76212" lon="5.53013">
        <ele>227.97</ele>
        <time>2021-01-07T11:34:59Z</time>
      </trkpt>
      <trkpt lat="46.76212" lon="5.53022">
        <ele>227.97</ele>
        <time>2021-01-07T11:35:03Z</time>
      </trkpt>
      <trkpt lat="46.76214" lon="5.53058">
        <ele>227.01</ele>
        <time>2021-01-07T11:35:19Z</time>
      </trkpt>
      <trkpt lat="46.76214" lon="5.53067">
        <ele>226.53</ele>
        <time>2021-01-07T11:35:24Z</time>
      </trkpt>
      <trkpt lat="46.76213" lon="5.53072">
        <ele>226.53</ele>
        <time>2021-01-07T11:35:26Z</time>
      </trkpt>
      <trkpt lat="46.76211" lon="5.53094">
        <ele>226.05</ele>
        <time>2021-01-07T11:35:40Z</time>
      </trkpt>
      <trkpt lat="46.76211" lon="5.53095">
        <ele>226.05</ele>
        <time>2021-01-07T11:35:41Z</time>
      </trkpt>
      <trkpt lat="46.76211" lon="5.531">
        <ele>226.05</ele>
        <time>2021-01-07T11:35:43Z</time>
      </trkpt>
      <trkpt lat="46.76209" lon="5.53131">
        <ele>226.05</ele>
        <time>2021-01-07T11:35:56Z</time>
      </trkpt>
      <trkpt lat="46.76206" lon="5.53151">
        <ele>226.05</ele>
        <time>2021-01-07T11:36:07Z</time>
      </trkpt>
      <trkpt lat="46.76208" lon="5.53173">
        <ele>225.57</ele>
        <time>2021-01-07T11:36:21Z</time>
      </trkpt>
      <trkpt lat="46.7621" lon="5.53195">
        <ele>225.57</ele>
        <time>2021-01-07T11:36:30Z</time>
      </trkpt>
      <trkpt lat="46.76213" lon="5.53223">
        <ele>225.57</ele>
        <time>2021-01-07T11:36:42Z</time>
      </trkpt>
      <trkpt lat="46.76219" lon="5.53252">
        <ele>225.57</ele>
        <time>2021-01-07T11:36:57Z</time>
      </trkpt>
      <trkpt lat="46.76224" lon="5.5328">
        <ele>225.57</ele>
        <time>2021-01-07T11:37:11Z</time>
      </trkpt>
      <trkpt lat="46.76228" lon="5.53308">
        <ele>225.57</ele>
        <time>2021-01-07T11:37:25Z</time>
      </trkpt>
      <trkpt lat="46.76229" lon="5.5333">
        <ele>225.09</ele>
        <time>2021-01-07T11:37:39Z</time>
      </trkpt>
      <trkpt lat="46.7623" lon="5.53354">
        <ele>225.09</ele>
        <time>2021-01-07T11:37:53Z</time>
      </trkpt>
      <trkpt lat="46.76232" lon="5.53385">
        <ele>225.09</ele>
        <time>2021-01-07T11:38:08Z</time>
      </trkpt>
      <trkpt lat="46.76238" lon="5.53409">
        <ele>224.61</ele>
        <time>2021-01-07T11:38:21Z</time>
      </trkpt>
      <trkpt lat="46.76241" lon="5.5343">
        <ele>224.61</ele>
        <time>2021-01-07T11:38:33Z</time>
      </trkpt>
      <trkpt lat="46.76244" lon="5.53452">
        <ele>225.57</ele>
        <time>2021-01-07T11:38:44Z</time>
      </trkpt>
      <trkpt lat="46.76247" lon="5.5349">
        <ele>225.09</ele>
        <time>2021-01-07T11:38:58Z</time>
      </trkpt>
      <trkpt lat="46.7625" lon="5.5352">
        <ele>225.57</ele>
        <time>2021-01-07T11:39:07Z</time>
      </trkpt>
      <trkpt lat="46.76235" lon="5.53538">
        <ele>226.05</ele>
        <time>2021-01-07T11:39:22Z</time>
      </trkpt>
      <trkpt lat="46.76228" lon="5.53541">
        <ele>225.57</ele>
        <time>2021-01-07T11:39:28Z</time>
      </trkpt>
      <trkpt lat="46.76207" lon="5.53547">
        <ele>225.57</ele>
        <time>2021-01-07T11:39:44Z</time>
      </trkpt>
      <trkpt lat="46.76183" lon="5.53553">
        <ele>226.05</ele>
        <time>2021-01-07T11:39:58Z</time>
      </trkpt>
      <trkpt lat="46.76167" lon="5.53557">
        <ele>226.05</ele>
        <time>2021-01-07T11:40:07Z</time>
      </trkpt>
      <trkpt lat="46.76161" lon="5.5356">
        <ele>226.05</ele>
        <time>2021-01-07T11:40:11Z</time>
      </trkpt>
      <trkpt lat="46.76137" lon="5.53569">
        <ele>226.53</ele>
        <time>2021-01-07T11:40:28Z</time>
      </trkpt>
      <trkpt lat="46.76117" lon="5.53574">
        <ele>226.53</ele>
        <time>2021-01-07T11:40:43Z</time>
      </trkpt>
      <trkpt lat="46.761" lon="5.53588">
        <ele>225.09</ele>
        <time>2021-01-07T11:40:57Z</time>
      </trkpt>
      <trkpt lat="46.761" lon="5.53589">
        <ele>225.09</ele>
        <time>2021-01-07T11:40:58Z</time>
      </trkpt>
      <trkpt lat="46.76094" lon="5.53618">
        <ele>224.61</ele>
        <time>2021-01-07T11:41:11Z</time>
      </trkpt>
      <trkpt lat="46.76094" lon="5.53646">
        <ele>224.12</ele>
        <time>2021-01-07T11:41:26Z</time>
      </trkpt>
      <trkpt lat="46.76094" lon="5.53657">
        <ele>224.12</ele>
        <time>2021-01-07T11:41:32Z</time>
      </trkpt>
      <trkpt lat="46.76099" lon="5.53674">
        <ele>224.12</ele>
        <time>2021-01-07T11:41:45Z</time>
      </trkpt>
      <trkpt lat="46.761" lon="5.53689">
        <ele>224.12</ele>
        <time>2021-01-07T11:41:58Z</time>
      </trkpt>
      <trkpt lat="46.76099" lon="5.53698">
        <ele>224.12</ele>
        <time>2021-01-07T11:42:02Z</time>
      </trkpt>
      <trkpt lat="46.76098" lon="5.53703">
        <ele>224.12</ele>
        <time>2021-01-07T11:42:04Z</time>
      </trkpt>
      <trkpt lat="46.76098" lon="5.53705">
        <ele>224.12</ele>
        <time>2021-01-07T11:42:05Z</time>
      </trkpt>
      <trkpt lat="46.76097" lon="5.53708">
        <ele>224.12</ele>
        <time>2021-01-07T11:42:06Z</time>
      </trkpt>
      <trkpt lat="46.76097" lon="5.5371">
        <ele>224.12</ele>
        <time>2021-01-07T11:42:07Z</time>
      </trkpt>
      <trkpt lat="46.76097" lon="5.53712">
        <ele>224.12</ele>
        <time>2021-01-07T11:42:08Z</time>
      </trkpt>
      <trkpt lat="46.76095" lon="5.53727">
        <ele>224.12</ele>
        <time>2021-01-07T11:42:14Z</time>
      </trkpt>
      <trkpt lat="46.7609" lon="5.53754">
        <ele>224.12</ele>
        <time>2021-01-07T11:42:26Z</time>
      </trkpt>
      <trkpt lat="46.7609" lon="5.53758">
        <ele>224.12</ele>
        <time>2021-01-07T11:42:28Z</time>
      </trkpt>
      <trkpt lat="46.76089" lon="5.53768">
        <ele>224.12</ele>
        <time>2021-01-07T11:42:33Z</time>
      </trkpt>
      <trkpt lat="46.76083" lon="5.53791">
        <ele>223.64</ele>
        <time>2021-01-07T11:42:46Z</time>
      </trkpt>
      <trkpt lat="46.76071" lon="5.5382">
        <ele>223.64</ele>
        <time>2021-01-07T11:43:01Z</time>
      </trkpt>
      <trkpt lat="46.76069" lon="5.53847">
        <ele>223.64</ele>
        <time>2021-01-07T11:43:15Z</time>
      </trkpt>
      <trkpt lat="46.76073" lon="5.53881">
        <ele>223.64</ele>
        <time>2021-01-07T11:43:31Z</time>
      </trkpt>
      <trkpt lat="46.76083" lon="5.53906">
        <ele>223.64</ele>
        <time>2021-01-07T11:43:44Z</time>
      </trkpt>
      <trkpt lat="46.76093" lon="5.53935">
        <ele>223.64</ele>
        <time>2021-01-07T11:44:00Z</time>
      </trkpt>
      <trkpt lat="46.76099" lon="5.5395">
        <ele>223.64</ele>
        <time>2021-01-07T11:44:09Z</time>
      </trkpt>
      <trkpt lat="46.7611" lon="5.53977">
        <ele>223.16</ele>
        <time>2021-01-07T11:44:23Z</time>
      </trkpt>
      <trkpt lat="46.76121" lon="5.54008">
        <ele>223.16</ele>
        <time>2021-01-07T11:44:39Z</time>
      </trkpt>
      <trkpt lat="46.76132" lon="5.54035">
        <ele>223.16</ele>
        <time>2021-01-07T11:44:54Z</time>
      </trkpt>
      <trkpt lat="46.76147" lon="5.54065">
        <ele>224.12</ele>
        <time>2021-01-07T11:45:11Z</time>
      </trkpt>
      <trkpt lat="46.76152" lon="5.54078">
        <ele>224.12</ele>
        <time>2021-01-07T11:45:18Z</time>
      </trkpt>
      <trkpt lat="46.76153" lon="5.54082">
        <ele>224.12</ele>
        <time>2021-01-07T11:45:20Z</time>
      </trkpt>
      <trkpt lat="46.76154" lon="5.54084">
        <ele>224.12</ele>
        <time>2021-01-07T11:45:21Z</time>
      </trkpt>
      <trkpt lat="46.76155" lon="5.54086">
        <ele>224.12</ele>
        <time>2021-01-07T11:45:22Z</time>
      </trkpt>
      <trkpt lat="46.76163" lon="5.54115">
        <ele>224.61</ele>
        <time>2021-01-07T11:45:36Z</time>
      </trkpt>
      <trkpt lat="46.76174" lon="5.54142">
        <ele>224.61</ele>
        <time>2021-01-07T11:45:52Z</time>
      </trkpt>
      <trkpt lat="46.76174" lon="5.5415">
        <ele>223.16</ele>
        <time>2021-01-07T11:46:07Z</time>
      </trkpt>
      <trkpt lat="46.76174" lon="5.54151">
        <ele>224.61</ele>
        <time>2021-01-07T11:46:09Z</time>
      </trkpt>
      <trkpt lat="46.76179" lon="5.5416">
        <ele>225.09</ele>
        <time>2021-01-07T11:46:23Z</time>
      </trkpt>
      <trkpt lat="46.76186" lon="5.54175">
        <ele>225.09</ele>
        <time>2021-01-07T11:46:37Z</time>
      </trkpt>
      <trkpt lat="46.76188" lon="5.54182">
        <ele>225.09</ele>
        <time>2021-01-07T11:46:52Z</time>
      </trkpt>
      <trkpt lat="46.76186" lon="5.54194">
        <ele>224.61</ele>
        <time>2021-01-07T11:47:05Z</time>
      </trkpt>
      <trkpt lat="46.76181" lon="5.54208">
        <ele>225.09</ele>
        <time>2021-01-07T11:47:17Z</time>
      </trkpt>
      <trkpt lat="46.76173" lon="5.54223">
        <ele>225.09</ele>
        <time>2021-01-07T11:47:27Z</time>
      </trkpt>
      <trkpt lat="46.7617" lon="5.54228">
        <ele>225.57</ele>
        <time>2021-01-07T11:47:30Z</time>
      </trkpt>
      <trkpt lat="46.76162" lon="5.54244">
        <ele>225.57</ele>
        <time>2021-01-07T11:47:40Z</time>
      </trkpt>
      <trkpt lat="46.76153" lon="5.54264">
        <ele>225.57</ele>
        <time>2021-01-07T11:47:53Z</time>
      </trkpt>
      <trkpt lat="46.76151" lon="5.54271">
        <ele>225.57</ele>
        <time>2021-01-07T11:47:57Z</time>
      </trkpt>
      <trkpt lat="46.76143" lon="5.54302">
        <ele>225.57</ele>
        <time>2021-01-07T11:48:14Z</time>
      </trkpt>
      <trkpt lat="46.76138" lon="5.54329">
        <ele>226.05</ele>
        <time>2021-01-07T11:48:28Z</time>
      </trkpt>
      <trkpt lat="46.76135" lon="5.54359">
        <ele>227.01</ele>
        <time>2021-01-07T11:48:39Z</time>
      </trkpt>
      <trkpt lat="46.76133" lon="5.54374">
        <ele>227.01</ele>
        <time>2021-01-07T11:48:43Z</time>
      </trkpt>
      <trkpt lat="46.76127" lon="5.54389">
        <ele>227.49</ele>
        <time>2021-01-07T11:48:49Z</time>
      </trkpt>
      <trkpt lat="46.76115" lon="5.54392">
        <ele>227.49</ele>
        <time>2021-01-07T11:48:58Z</time>
      </trkpt>
      <trkpt lat="46.76112" lon="5.54392">
        <ele>227.01</ele>
        <time>2021-01-07T11:49:00Z</time>
      </trkpt>
      <trkpt lat="46.76094" lon="5.54384">
        <ele>227.49</ele>
        <time>2021-01-07T11:49:14Z</time>
      </trkpt>
      <trkpt lat="46.7608" lon="5.54378">
        <ele>227.97</ele>
        <time>2021-01-07T11:49:25Z</time>
      </trkpt>
      <trkpt lat="46.76056" lon="5.54372">
        <ele>227.97</ele>
        <time>2021-01-07T11:49:41Z</time>
      </trkpt>
      <trkpt lat="46.76036" lon="5.54367">
        <ele>228.45</ele>
        <time>2021-01-07T11:49:55Z</time>
      </trkpt>
      <trkpt lat="46.76015" lon="5.54361">
        <ele>227.97</ele>
        <time>2021-01-07T11:50:09Z</time>
      </trkpt>
      <trkpt lat="46.76012" lon="5.54366">
        <ele>229.41</ele>
        <time>2021-01-07T11:50:21Z</time>
      </trkpt>
      <trkpt lat="46.76014" lon="5.54368">
        <ele>229.41</ele>
        <time>2021-01-07T11:50:24Z</time>
      </trkpt>
      <trkpt lat="46.76006" lon="5.544">
        <ele>229.41</ele>
        <time>2021-01-07T11:50:38Z</time>
      </trkpt>
      <trkpt lat="46.76006" lon="5.54425">
        <ele>229.41</ele>
        <time>2021-01-07T11:50:48Z</time>
      </trkpt>
      <trkpt lat="46.76004" lon="5.54429">
        <ele>229.41</ele>
        <time>2021-01-07T11:50:51Z</time>
      </trkpt>
      <trkpt lat="46.75992" lon="5.54445">
        <ele>230.37</ele>
        <time>2021-01-07T11:51:05Z</time>
      </trkpt>
      <trkpt lat="46.7599" lon="5.54448">
        <ele>230.85</ele>
        <time>2021-01-07T11:51:07Z</time>
      </trkpt>
      <trkpt lat="46.75981" lon="5.54472">
        <ele>231.81</ele>
        <time>2021-01-07T11:51:20Z</time>
      </trkpt>
      <trkpt lat="46.75969" lon="5.545">
        <ele>233.26</ele>
        <time>2021-01-07T11:51:35Z</time>
      </trkpt>
      <trkpt lat="46.75959" lon="5.5452">
        <ele>234.7</ele>
        <time>2021-01-07T11:51:47Z</time>
      </trkpt>
      <trkpt lat="46.75943" lon="5.54535">
        <ele>236.14</ele>
        <time>2021-01-07T11:52:02Z</time>
      </trkpt>
      <trkpt lat="46.75928" lon="5.54544">
        <ele>237.58</ele>
        <time>2021-01-07T11:52:15Z</time>
      </trkpt>
      <trkpt lat="46.75916" lon="5.54553">
        <ele>239.51</ele>
        <time>2021-01-07T11:52:28Z</time>
      </trkpt>
      <trkpt lat="46.75902" lon="5.54566">
        <ele>240.95</ele>
        <time>2021-01-07T11:52:42Z</time>
      </trkpt>
      <trkpt lat="46.75888" lon="5.54578">
        <ele>242.39</ele>
        <time>2021-01-07T11:52:55Z</time>
      </trkpt>
      <trkpt lat="46.75872" lon="5.54578">
        <ele>242.39</ele>
        <time>2021-01-07T11:53:09Z</time>
      </trkpt>
      <trkpt lat="46.75873" lon="5.5458">
        <ele>242.39</ele>
        <time>2021-01-07T11:53:28Z</time>
      </trkpt>
      <trkpt lat="46.75876" lon="5.54581">
        <ele>242.39</ele>
        <time>2021-01-07T11:53:44Z</time>
      </trkpt>
      <trkpt lat="46.75875" lon="5.54595">
        <ele>243.83</ele>
        <time>2021-01-07T11:53:58Z</time>
      </trkpt>
      <trkpt lat="46.75862" lon="5.54613">
        <ele>245.27</ele>
        <time>2021-01-07T11:54:15Z</time>
      </trkpt>
      <trkpt lat="46.75854" lon="5.54639">
        <ele>247.68</ele>
        <time>2021-01-07T11:54:31Z</time>
      </trkpt>
      <trkpt lat="46.7585" lon="5.54658">
        <ele>250.56</ele>
        <time>2021-01-07T11:54:44Z</time>
      </trkpt>
      <trkpt lat="46.75841" lon="5.5468">
        <ele>251.52</ele>
        <time>2021-01-07T11:54:56Z</time>
      </trkpt>
      <trkpt lat="46.7583" lon="5.54699">
        <ele>253.93</ele>
        <time>2021-01-07T11:55:10Z</time>
      </trkpt>
      <trkpt lat="46.75821" lon="5.54725">
        <ele>254.89</ele>
        <time>2021-01-07T11:55:25Z</time>
      </trkpt>
      <trkpt lat="46.75812" lon="5.54745">
        <ele>255.37</ele>
        <time>2021-01-07T11:55:38Z</time>
      </trkpt>
      <trkpt lat="46.75803" lon="5.54748">
        <ele>256.81</ele>
        <time>2021-01-07T11:55:43Z</time>
      </trkpt>
      <trkpt lat="46.75778" lon="5.54751">
        <ele>260.17</ele>
        <time>2021-01-07T11:55:58Z</time>
      </trkpt>
      <trkpt lat="46.75761" lon="5.54747">
        <ele>262.1</ele>
        <time>2021-01-07T11:56:11Z</time>
      </trkpt>
      <trkpt lat="46.75744" lon="5.5474">
        <ele>263.06</ele>
        <time>2021-01-07T11:56:26Z</time>
      </trkpt>
      <trkpt lat="46.75732" lon="5.54734">
        <ele>264.02</ele>
        <time>2021-01-07T11:56:35Z</time>
      </trkpt>
      <trkpt lat="46.75727" lon="5.5473">
        <ele>264.5</ele>
        <time>2021-01-07T11:56:39Z</time>
      </trkpt>
      <trkpt lat="46.7571" lon="5.54726">
        <ele>264.98</ele>
        <time>2021-01-07T11:56:52Z</time>
      </trkpt>
      <trkpt lat="46.757" lon="5.54727">
        <ele>265.94</ele>
        <time>2021-01-07T11:57:01Z</time>
      </trkpt>
      <trkpt lat="46.75695" lon="5.54725">
        <ele>266.42</ele>
        <time>2021-01-07T11:57:05Z</time>
      </trkpt>
      <trkpt lat="46.75689" lon="5.54722">
        <ele>266.42</ele>
        <time>2021-01-07T11:57:10Z</time>
      </trkpt>
      <trkpt lat="46.75666" lon="5.54726">
        <ele>267.38</ele>
        <time>2021-01-07T11:57:26Z</time>
      </trkpt>
      <trkpt lat="46.75647" lon="5.5472">
        <ele>268.83</ele>
        <time>2021-01-07T11:57:39Z</time>
      </trkpt>
      <trkpt lat="46.75624" lon="5.54714">
        <ele>268.35</ele>
        <time>2021-01-07T11:57:54Z</time>
      </trkpt>
      <trkpt lat="46.75619" lon="5.54712">
        <ele>268.35</ele>
        <time>2021-01-07T11:57:58Z</time>
      </trkpt>
      <trkpt lat="46.7561" lon="5.54707">
        <ele>268.35</ele>
        <time>2021-01-07T11:58:05Z</time>
      </trkpt>
      <trkpt lat="46.75585" lon="5.54695">
        <ele>268.83</ele>
        <time>2021-01-07T11:58:24Z</time>
      </trkpt>
      <trkpt lat="46.75565" lon="5.5468">
        <ele>268.83</ele>
        <time>2021-01-07T11:58:41Z</time>
      </trkpt>
      <trkpt lat="46.7556" lon="5.54674">
        <ele>268.83</ele>
        <time>2021-01-07T11:58:45Z</time>
      </trkpt>
      <trkpt lat="46.75543" lon="5.54663">
        <ele>269.79</ele>
        <time>2021-01-07T11:58:58Z</time>
      </trkpt>
      <trkpt lat="46.75532" lon="5.54662">
        <ele>269.79</ele>
        <time>2021-01-07T11:59:07Z</time>
      </trkpt>
      <trkpt lat="46.75522" lon="5.54661">
        <ele>270.27</ele>
        <time>2021-01-07T11:59:15Z</time>
      </trkpt>
      <trkpt lat="46.7552" lon="5.54661">
        <ele>270.27</ele>
        <time>2021-01-07T11:59:17Z</time>
      </trkpt>
      <trkpt lat="46.75512" lon="5.54656">
        <ele>270.75</ele>
        <time>2021-01-07T11:59:23Z</time>
      </trkpt>
      <trkpt lat="46.75507" lon="5.54651">
        <ele>271.23</ele>
        <time>2021-01-07T11:59:27Z</time>
      </trkpt>
      <trkpt lat="46.75481" lon="5.54628">
        <ele>272.19</ele>
        <time>2021-01-07T11:59:48Z</time>
      </trkpt>
      <trkpt lat="46.75465" lon="5.54612">
        <ele>273.63</ele>
        <time>2021-01-07T12:00:06Z</time>
      </trkpt>
      <trkpt lat="46.75448" lon="5.54594">
        <ele>275.07</ele>
        <time>2021-01-07T12:00:22Z</time>
      </trkpt>
      <trkpt lat="46.7543" lon="5.54572">
        <ele>276.52</ele>
        <time>2021-01-07T12:00:38Z</time>
      </trkpt>
      <trkpt lat="46.75412" lon="5.54552">
        <ele>278.44</ele>
        <time>2021-01-07T12:00:54Z</time>
      </trkpt>
      <trkpt lat="46.75404" lon="5.54541">
        <ele>280.36</ele>
        <time>2021-01-07T12:01:06Z</time>
      </trkpt>
      <trkpt lat="46.75403" lon="5.54543">
        <ele>280.36</ele>
        <time>2021-01-07T12:01:25Z</time>
      </trkpt>
      <trkpt lat="46.75396" lon="5.54535">
        <ele>281.8</ele>
        <time>2021-01-07T12:01:38Z</time>
      </trkpt>
      <trkpt lat="46.75389" lon="5.54525">
        <ele>284.21</ele>
        <time>2021-01-07T12:01:46Z</time>
      </trkpt>
      <trkpt lat="46.75373" lon="5.54509">
        <ele>287.09</ele>
        <time>2021-01-07T12:02:02Z</time>
      </trkpt>
      <trkpt lat="46.75356" lon="5.54495">
        <ele>289.49</ele>
        <time>2021-01-07T12:02:19Z</time>
      </trkpt>
      <trkpt lat="46.75352" lon="5.54491">
        <ele>289.97</ele>
        <time>2021-01-07T12:02:23Z</time>
      </trkpt>
      <trkpt lat="46.75335" lon="5.54485">
        <ele>291.42</ele>
        <time>2021-01-07T12:02:38Z</time>
      </trkpt>
      <trkpt lat="46.75316" lon="5.54472">
        <ele>293.34</ele>
        <time>2021-01-07T12:02:54Z</time>
      </trkpt>
      <trkpt lat="46.75297" lon="5.54459">
        <ele>295.26</ele>
        <time>2021-01-07T12:03:11Z</time>
      </trkpt>
      <trkpt lat="46.75291" lon="5.54455">
        <ele>295.74</ele>
        <time>2021-01-07T12:03:16Z</time>
      </trkpt>
      <trkpt lat="46.75283" lon="5.54452">
        <ele>296.7</ele>
        <time>2021-01-07T12:03:23Z</time>
      </trkpt>
      <trkpt lat="46.75257" lon="5.5443">
        <ele>299.11</ele>
        <time>2021-01-07T12:03:43Z</time>
      </trkpt>
      <trkpt lat="46.75236" lon="5.54418">
        <ele>301.03</ele>
        <time>2021-01-07T12:03:59Z</time>
      </trkpt>
      <trkpt lat="46.75218" lon="5.54403">
        <ele>302.47</ele>
        <time>2021-01-07T12:04:17Z</time>
      </trkpt>
      <trkpt lat="46.75216" lon="5.544">
        <ele>302.47</ele>
        <time>2021-01-07T12:04:34Z</time>
      </trkpt>
      <trkpt lat="46.75214" lon="5.54399">
        <ele>302.47</ele>
        <time>2021-01-07T12:04:39Z</time>
      </trkpt>
      <trkpt lat="46.75208" lon="5.54398">
        <ele>302.47</ele>
        <time>2021-01-07T12:04:44Z</time>
      </trkpt>
      <trkpt lat="46.75187" lon="5.54391">
        <ele>302.95</ele>
        <time>2021-01-07T12:05:01Z</time>
      </trkpt>
      <trkpt lat="46.75168" lon="5.54386">
        <ele>302.95</ele>
        <time>2021-01-07T12:05:14Z</time>
      </trkpt>
      <trkpt lat="46.75145" lon="5.54377">
        <ele>302.95</ele>
        <time>2021-01-07T12:05:30Z</time>
      </trkpt>
      <trkpt lat="46.75125" lon="5.54368">
        <ele>302.95</ele>
        <time>2021-01-07T12:05:45Z</time>
      </trkpt>
      <trkpt lat="46.75104" lon="5.54353">
        <ele>302.95</ele>
        <time>2021-01-07T12:06:01Z</time>
      </trkpt>
      <trkpt lat="46.75079" lon="5.54332">
        <ele>301.51</ele>
        <time>2021-01-07T12:06:20Z</time>
      </trkpt>
      <trkpt lat="46.75065" lon="5.54298">
        <ele>300.55</ele>
        <time>2021-01-07T12:06:37Z</time>
      </trkpt>
      <trkpt lat="46.7506" lon="5.54268">
        <ele>299.11</ele>
        <time>2021-01-07T12:06:51Z</time>
      </trkpt>
      <trkpt lat="46.7505" lon="5.54237">
        <ele>297.67</ele>
        <time>2021-01-07T12:07:08Z</time>
      </trkpt>
      <trkpt lat="46.75034" lon="5.54215">
        <ele>296.22</ele>
        <time>2021-01-07T12:07:23Z</time>
      </trkpt>
      <trkpt lat="46.75016" lon="5.54188">
        <ele>294.3</ele>
        <time>2021-01-07T12:07:41Z</time>
      </trkpt>
      <trkpt lat="46.75012" lon="5.54181">
        <ele>293.82</ele>
        <time>2021-01-07T12:07:45Z</time>
      </trkpt>
      <trkpt lat="46.74992" lon="5.54155">
        <ele>292.86</ele>
        <time>2021-01-07T12:08:03Z</time>
      </trkpt>
      <trkpt lat="46.74973" lon="5.54137">
        <ele>292.38</ele>
        <time>2021-01-07T12:08:18Z</time>
      </trkpt>
      <trkpt lat="46.74956" lon="5.54111">
        <ele>292.86</ele>
        <time>2021-01-07T12:08:34Z</time>
      </trkpt>
      <trkpt lat="46.74955" lon="5.541">
        <ele>292.86</ele>
        <time>2021-01-07T12:08:40Z</time>
      </trkpt>
      <trkpt lat="46.74955" lon="5.54075">
        <ele>292.86</ele>
        <time>2021-01-07T12:08:52Z</time>
      </trkpt>
      <trkpt lat="46.74958" lon="5.54039">
        <ele>290.94</ele>
        <time>2021-01-07T12:09:09Z</time>
      </trkpt>
      <trkpt lat="46.74957" lon="5.54004">
        <ele>289.97</ele>
        <time>2021-01-07T12:09:26Z</time>
      </trkpt>
      <trkpt lat="46.74961" lon="5.53955">
        <ele>289.01</ele>
        <time>2021-01-07T12:09:46Z</time>
      </trkpt>
      <trkpt lat="46.74964" lon="5.5391">
        <ele>288.05</ele>
        <time>2021-01-07T12:10:08Z</time>
      </trkpt>
      <trkpt lat="46.74971" lon="5.53884">
        <ele>287.09</ele>
        <time>2021-01-07T12:10:22Z</time>
      </trkpt>
      <trkpt lat="46.74989" lon="5.53878">
        <ele>286.61</ele>
        <time>2021-01-07T12:10:36Z</time>
      </trkpt>
      <trkpt lat="46.75015" lon="5.53891">
        <ele>285.65</ele>
        <time>2021-01-07T12:10:54Z</time>
      </trkpt>
      <trkpt lat="46.75034" lon="5.53904">
        <ele>285.65</ele>
        <time>2021-01-07T12:11:10Z</time>
      </trkpt>
      <trkpt lat="46.75057" lon="5.53917">
        <ele>284.21</ele>
        <time>2021-01-07T12:11:28Z</time>
      </trkpt>
      <trkpt lat="46.75083" lon="5.5393">
        <ele>282.28</ele>
        <time>2021-01-07T12:11:46Z</time>
      </trkpt>
      <trkpt lat="46.7511" lon="5.53944">
        <ele>280.84</ele>
        <time>2021-01-07T12:12:06Z</time>
      </trkpt>
      <trkpt lat="46.75133" lon="5.53958">
        <ele>279.4</ele>
        <time>2021-01-07T12:12:23Z</time>
      </trkpt>
      <trkpt lat="46.75139" lon="5.53959">
        <ele>278.92</ele>
        <time>2021-01-07T12:12:27Z</time>
      </trkpt>
      <trkpt lat="46.75146" lon="5.53951">
        <ele>278.92</ele>
        <time>2021-01-07T12:12:35Z</time>
      </trkpt>
      <trkpt lat="46.75149" lon="5.53925">
        <ele>283.25</ele>
        <time>2021-01-07T12:12:48Z</time>
      </trkpt>
      <trkpt lat="46.75151" lon="5.53894">
        <ele>286.61</ele>
        <time>2021-01-07T12:13:04Z</time>
      </trkpt>
      <trkpt lat="46.75156" lon="5.53855">
        <ele>288.53</ele>
        <time>2021-01-07T12:13:23Z</time>
      </trkpt>
      <trkpt lat="46.75169" lon="5.53838">
        <ele>288.05</ele>
        <time>2021-01-07T12:13:36Z</time>
      </trkpt>
      <trkpt lat="46.75189" lon="5.53822">
        <ele>285.65</ele>
        <time>2021-01-07T12:13:53Z</time>
      </trkpt>
      <trkpt lat="46.75204" lon="5.538">
        <ele>283.25</ele>
        <time>2021-01-07T12:14:10Z</time>
      </trkpt>
      <trkpt lat="46.75211" lon="5.53785">
        <ele>281.8</ele>
        <time>2021-01-07T12:14:20Z</time>
      </trkpt>
      <trkpt lat="46.75214" lon="5.53774">
        <ele>280.36</ele>
        <time>2021-01-07T12:14:27Z</time>
      </trkpt>
      <trkpt lat="46.75217" lon="5.53767">
        <ele>280.36</ele>
        <time>2021-01-07T12:14:31Z</time>
      </trkpt>
      <trkpt lat="46.7522" lon="5.53758">
        <ele>279.4</ele>
        <time>2021-01-07T12:14:36Z</time>
      </trkpt>
      <trkpt lat="46.7523" lon="5.53732">
        <ele>277</ele>
        <time>2021-01-07T12:14:50Z</time>
      </trkpt>
      <trkpt lat="46.7524" lon="5.53704">
        <ele>274.59</ele>
        <time>2021-01-07T12:15:06Z</time>
      </trkpt>
      <trkpt lat="46.7525" lon="5.53682">
        <ele>273.63</ele>
        <time>2021-01-07T12:15:19Z</time>
      </trkpt>
      <trkpt lat="46.75261" lon="5.53667">
        <ele>273.15</ele>
        <time>2021-01-07T12:15:34Z</time>
      </trkpt>
      <trkpt lat="46.75263" lon="5.53666">
        <ele>273.15</ele>
        <time>2021-01-07T12:15:37Z</time>
      </trkpt>
      <trkpt lat="46.75279" lon="5.5364">
        <ele>273.15</ele>
        <time>2021-01-07T12:15:55Z</time>
      </trkpt>
      <trkpt lat="46.75294" lon="5.53612">
        <ele>275.56</ele>
        <time>2021-01-07T12:16:13Z</time>
      </trkpt>
      <trkpt lat="46.75299" lon="5.53602">
        <ele>276.04</ele>
        <time>2021-01-07T12:16:19Z</time>
      </trkpt>
      <trkpt lat="46.7531" lon="5.53583">
        <ele>277</ele>
        <time>2021-01-07T12:16:34Z</time>
      </trkpt>
      <trkpt lat="46.75325" lon="5.53567">
        <ele>277.96</ele>
        <time>2021-01-07T12:16:50Z</time>
      </trkpt>
      <trkpt lat="46.75348" lon="5.53556">
        <ele>279.88</ele>
        <time>2021-01-07T12:17:08Z</time>
      </trkpt>
      <trkpt lat="46.7537" lon="5.53544">
        <ele>281.8</ele>
        <time>2021-01-07T12:17:26Z</time>
      </trkpt>
      <trkpt lat="46.75373" lon="5.53542">
        <ele>281.8</ele>
        <time>2021-01-07T12:17:28Z</time>
      </trkpt>
      <trkpt lat="46.75378" lon="5.53534">
        <ele>282.77</ele>
        <time>2021-01-07T12:17:35Z</time>
      </trkpt>
      <trkpt lat="46.75378" lon="5.53528">
        <ele>282.77</ele>
        <time>2021-01-07T12:17:38Z</time>
      </trkpt>
      <trkpt lat="46.75379" lon="5.53518">
        <ele>282.77</ele>
        <time>2021-01-07T12:17:45Z</time>
      </trkpt>
      <trkpt lat="46.75383" lon="5.53489">
        <ele>282.28</ele>
        <time>2021-01-07T12:17:59Z</time>
      </trkpt>
      <trkpt lat="46.75389" lon="5.53451">
        <ele>282.28</ele>
        <time>2021-01-07T12:18:16Z</time>
      </trkpt>
      <trkpt lat="46.75391" lon="5.53442">
        <ele>281.32</ele>
        <time>2021-01-07T12:18:21Z</time>
      </trkpt>
      <trkpt lat="46.754" lon="5.53407">
        <ele>279.4</ele>
        <time>2021-01-07T12:18:38Z</time>
      </trkpt>
      <trkpt lat="46.75406" lon="5.53373">
        <ele>277</ele>
        <time>2021-01-07T12:18:54Z</time>
      </trkpt>
      <trkpt lat="46.75406" lon="5.53369">
        <ele>276.04</ele>
        <time>2021-01-07T12:18:57Z</time>
      </trkpt>
      <trkpt lat="46.75413" lon="5.53343">
        <ele>274.11</ele>
        <time>2021-01-07T12:19:11Z</time>
      </trkpt>
      <trkpt lat="46.75423" lon="5.53318">
        <ele>272.19</ele>
        <time>2021-01-07T12:19:27Z</time>
      </trkpt>
      <trkpt lat="46.7544" lon="5.53296">
        <ele>270.75</ele>
        <time>2021-01-07T12:19:43Z</time>
      </trkpt>
      <trkpt lat="46.75458" lon="5.53276">
        <ele>268.83</ele>
        <time>2021-01-07T12:19:59Z</time>
      </trkpt>
      <trkpt lat="46.75477" lon="5.53258">
        <ele>266.42</ele>
        <time>2021-01-07T12:20:16Z</time>
      </trkpt>
      <trkpt lat="46.75493" lon="5.53242">
        <ele>263.54</ele>
        <time>2021-01-07T12:20:30Z</time>
      </trkpt>
      <trkpt lat="46.75507" lon="5.53216">
        <ele>260.17</ele>
        <time>2021-01-07T12:20:47Z</time>
      </trkpt>
      <trkpt lat="46.7552" lon="5.53191">
        <ele>257.77</ele>
        <time>2021-01-07T12:21:03Z</time>
      </trkpt>
      <trkpt lat="46.75521" lon="5.53189">
        <ele>257.77</ele>
        <time>2021-01-07T12:21:04Z</time>
      </trkpt>
      <trkpt lat="46.75535" lon="5.53174">
        <ele>255.37</ele>
        <time>2021-01-07T12:21:19Z</time>
      </trkpt>
      <trkpt lat="46.75551" lon="5.53148">
        <ele>253.44</ele>
        <time>2021-01-07T12:21:35Z</time>
      </trkpt>
      <trkpt lat="46.75566" lon="5.53121">
        <ele>252.48</ele>
        <time>2021-01-07T12:21:51Z</time>
      </trkpt>
      <trkpt lat="46.7558" lon="5.53086">
        <ele>251.04</ele>
        <time>2021-01-07T12:22:10Z</time>
      </trkpt>
      <trkpt lat="46.75595" lon="5.53053">
        <ele>249.12</ele>
        <time>2021-01-07T12:22:27Z</time>
      </trkpt>
      <trkpt lat="46.75602" lon="5.53024">
        <ele>247.68</ele>
        <time>2021-01-07T12:22:42Z</time>
      </trkpt>
      <trkpt lat="46.75611" lon="5.52988">
        <ele>244.79</ele>
        <time>2021-01-07T12:23:02Z</time>
      </trkpt>
      <trkpt lat="46.75619" lon="5.52954">
        <ele>242.39</ele>
        <time>2021-01-07T12:23:19Z</time>
      </trkpt>
      <trkpt lat="46.75629" lon="5.52917">
        <ele>240.47</ele>
        <time>2021-01-07T12:23:37Z</time>
      </trkpt>
      <trkpt lat="46.75625" lon="5.52881">
        <ele>239.02</ele>
        <time>2021-01-07T12:23:55Z</time>
      </trkpt>
      <trkpt lat="46.75623" lon="5.52847">
        <ele>237.58</ele>
        <time>2021-01-07T12:24:12Z</time>
      </trkpt>
      <trkpt lat="46.75625" lon="5.5281">
        <ele>237.1</ele>
        <time>2021-01-07T12:24:29Z</time>
      </trkpt>
      <trkpt lat="46.75632" lon="5.52777">
        <ele>237.1</ele>
        <time>2021-01-07T12:24:45Z</time>
      </trkpt>
      <trkpt lat="46.75637" lon="5.52761">
        <ele>236.62</ele>
        <time>2021-01-07T12:24:54Z</time>
      </trkpt>
      <trkpt lat="46.75636" lon="5.52758">
        <ele>236.62</ele>
        <time>2021-01-07T12:24:55Z</time>
      </trkpt>
      <trkpt lat="46.75636" lon="5.52756">
        <ele>236.62</ele>
        <time>2021-01-07T12:24:56Z</time>
      </trkpt>
      <trkpt lat="46.75648" lon="5.52733">
        <ele>235.66</ele>
        <time>2021-01-07T12:25:10Z</time>
      </trkpt>
      <trkpt lat="46.75661" lon="5.52711">
        <ele>234.7</ele>
        <time>2021-01-07T12:25:25Z</time>
      </trkpt>
      <trkpt lat="46.75678" lon="5.52684">
        <ele>234.7</ele>
        <time>2021-01-07T12:25:42Z</time>
      </trkpt>
      <trkpt lat="46.75693" lon="5.52659">
        <ele>234.7</ele>
        <time>2021-01-07T12:25:58Z</time>
      </trkpt>
      <trkpt lat="46.75708" lon="5.52637">
        <ele>234.7</ele>
        <time>2021-01-07T12:26:12Z</time>
      </trkpt>
      <trkpt lat="46.75715" lon="5.52627">
        <ele>236.14</ele>
        <time>2021-01-07T12:26:19Z</time>
      </trkpt>
      <trkpt lat="46.75733" lon="5.52608">
        <ele>237.58</ele>
        <time>2021-01-07T12:26:34Z</time>
      </trkpt>
      <trkpt lat="46.7575" lon="5.52582">
        <ele>239.51</ele>
        <time>2021-01-07T12:26:52Z</time>
      </trkpt>
      <trkpt lat="46.7576" lon="5.52562">
        <ele>239.51</ele>
        <time>2021-01-07T12:27:07Z</time>
      </trkpt>
      <trkpt lat="46.75764" lon="5.52548">
        <ele>238.06</ele>
        <time>2021-01-07T12:27:15Z</time>
      </trkpt>
      <trkpt lat="46.75764" lon="5.52546">
        <ele>238.06</ele>
        <time>2021-01-07T12:27:16Z</time>
      </trkpt>
      <trkpt lat="46.75767" lon="5.52537">
        <ele>237.1</ele>
        <time>2021-01-07T12:27:22Z</time>
      </trkpt>
      <trkpt lat="46.75767" lon="5.52535">
        <ele>237.1</ele>
        <time>2021-01-07T12:27:23Z</time>
      </trkpt>
      <trkpt lat="46.75774" lon="5.52505">
        <ele>235.66</ele>
        <time>2021-01-07T12:27:36Z</time>
      </trkpt>
      <trkpt lat="46.75779" lon="5.52481">
        <ele>235.66</ele>
        <time>2021-01-07T12:27:46Z</time>
      </trkpt>
      <trkpt lat="46.75779" lon="5.52479">
        <ele>235.66</ele>
        <time>2021-01-07T12:27:47Z</time>
      </trkpt>
      <trkpt lat="46.75779" lon="5.52477">
        <ele>235.66</ele>
        <time>2021-01-07T12:27:48Z</time>
      </trkpt>
      <trkpt lat="46.75779" lon="5.52475">
        <ele>235.66</ele>
        <time>2021-01-07T12:27:49Z</time>
      </trkpt>
      <trkpt lat="46.7578" lon="5.52472">
        <ele>235.18</ele>
        <time>2021-01-07T12:27:51Z</time>
      </trkpt>
      <trkpt lat="46.7578" lon="5.5247">
        <ele>235.18</ele>
        <time>2021-01-07T12:27:52Z</time>
      </trkpt>
      <trkpt lat="46.75781" lon="5.52468">
        <ele>235.18</ele>
        <time>2021-01-07T12:27:53Z</time>
      </trkpt>
      <trkpt lat="46.75781" lon="5.52467">
        <ele>235.18</ele>
        <time>2021-01-07T12:27:54Z</time>
      </trkpt>
      <trkpt lat="46.75782" lon="5.52465">
        <ele>235.18</ele>
        <time>2021-01-07T12:27:55Z</time>
      </trkpt>
      <trkpt lat="46.75793" lon="5.52432">
        <ele>234.7</ele>
        <time>2021-01-07T12:28:11Z</time>
      </trkpt>
      <trkpt lat="46.75805" lon="5.52407">
        <ele>234.22</ele>
        <time>2021-01-07T12:28:25Z</time>
      </trkpt>
      <trkpt lat="46.75825" lon="5.52401">
        <ele>234.22</ele>
        <time>2021-01-07T12:28:41Z</time>
      </trkpt>
      <trkpt lat="46.75847" lon="5.52398">
        <ele>233.26</ele>
        <time>2021-01-07T12:28:58Z</time>
      </trkpt>
      <trkpt lat="46.75873" lon="5.52396">
        <ele>232.78</ele>
        <time>2021-01-07T12:29:15Z</time>
      </trkpt>
      <trkpt lat="46.75895" lon="5.52392">
        <ele>231.81</ele>
        <time>2021-01-07T12:29:31Z</time>
      </trkpt>
      <trkpt lat="46.75915" lon="5.52387">
        <ele>229.89</ele>
        <time>2021-01-07T12:29:46Z</time>
      </trkpt>
      <trkpt lat="46.75931" lon="5.52379">
        <ele>228.45</ele>
        <time>2021-01-07T12:29:58Z</time>
      </trkpt>
      <trkpt lat="46.75932" lon="5.52378">
        <ele>228.45</ele>
        <time>2021-01-07T12:29:59Z</time>
      </trkpt>
      <trkpt lat="46.75934" lon="5.52378">
        <ele>228.45</ele>
        <time>2021-01-07T12:30:00Z</time>
      </trkpt>
      <trkpt lat="46.75942" lon="5.52373">
        <ele>227.97</ele>
        <time>2021-01-07T12:30:05Z</time>
      </trkpt>
      <trkpt lat="46.75957" lon="5.52358">
        <ele>224.61</ele>
        <time>2021-01-07T12:30:20Z</time>
      </trkpt>
      <trkpt lat="46.75977" lon="5.52337">
        <ele>222.2</ele>
        <time>2021-01-07T12:30:37Z</time>
      </trkpt>
      <trkpt lat="46.75983" lon="5.52333">
        <ele>221.72</ele>
        <time>2021-01-07T12:30:42Z</time>
      </trkpt>
      <trkpt lat="46.75997" lon="5.52323">
        <ele>219.8</ele>
        <time>2021-01-07T12:30:55Z</time>
      </trkpt>
      <trkpt lat="46.76006" lon="5.52321">
        <ele>219.32</ele>
        <time>2021-01-07T12:31:04Z</time>
      </trkpt>
      <trkpt lat="46.76008" lon="5.52321">
        <ele>218.84</ele>
        <time>2021-01-07T12:31:10Z</time>
      </trkpt>
      <trkpt lat="46.7601" lon="5.52321">
        <ele>218.84</ele>
        <time>2021-01-07T12:31:11Z</time>
      </trkpt>
      <trkpt lat="46.76012" lon="5.52321">
        <ele>218.84</ele>
        <time>2021-01-07T12:31:12Z</time>
      </trkpt>
      <trkpt lat="46.76014" lon="5.52321">
        <ele>218.84</ele>
        <time>2021-01-07T12:31:13Z</time>
      </trkpt>
      <trkpt lat="46.76016" lon="5.52322">
        <ele>218.84</ele>
        <time>2021-01-07T12:31:14Z</time>
      </trkpt>
      <trkpt lat="46.76026" lon="5.52324">
        <ele>217.88</ele>
        <time>2021-01-07T12:31:23Z</time>
      </trkpt>
      <trkpt lat="46.7603" lon="5.52325">
        <ele>217.88</ele>
        <time>2021-01-07T12:31:25Z</time>
      </trkpt>
      <trkpt lat="46.76038" lon="5.52327">
        <ele>217.4</ele>
        <time>2021-01-07T12:31:30Z</time>
      </trkpt>
      <trkpt lat="46.76041" lon="5.52327">
        <ele>217.4</ele>
        <time>2021-01-07T12:31:31Z</time>
      </trkpt>
      <trkpt lat="46.7605" lon="5.52329">
        <ele>217.4</ele>
        <time>2021-01-07T12:31:36Z</time>
      </trkpt>
      <trkpt lat="46.76056" lon="5.52337">
        <ele>217.88</ele>
        <time>2021-01-07T12:31:42Z</time>
      </trkpt>
      <trkpt lat="46.76058" lon="5.52366">
        <ele>217.88</ele>
        <time>2021-01-07T12:31:56Z</time>
      </trkpt>
      <trkpt lat="46.76059" lon="5.5239">
        <ele>217.88</ele>
        <time>2021-01-07T12:32:07Z</time>
      </trkpt>
      <trkpt lat="46.76065" lon="5.52412">
        <ele>217.88</ele>
        <time>2021-01-07T12:32:18Z</time>
      </trkpt>
      <trkpt lat="46.76065" lon="5.52423">
        <ele>217.88</ele>
        <time>2021-01-07T12:32:32Z</time>
      </trkpt>
      <trkpt lat="46.76064" lon="5.52429">
        <ele>217.88</ele>
        <time>2021-01-07T12:32:44Z</time>
      </trkpt>
      <trkpt lat="46.76068" lon="5.52429">
        <ele>217.88</ele>
        <time>2021-01-07T12:33:03Z</time>
      </trkpt>
      <trkpt lat="46.76066" lon="5.52427">
        <ele>217.88</ele>
        <time>2021-01-07T12:33:05Z</time>
      </trkpt>
      <trkpt lat="46.76065" lon="5.52426">
        <ele>217.88</ele>
        <time>2021-01-07T12:33:06Z</time>
      </trkpt>
      <trkpt lat="46.76063" lon="5.52426">
        <ele>217.88</ele>
        <time>2021-01-07T12:33:07Z</time>
      </trkpt>
      <trkpt lat="46.76062" lon="5.52425">
        <ele>217.88</ele>
        <time>2021-01-07T12:33:08Z</time>
      </trkpt>
      <trkpt lat="46.7606" lon="5.52425">
        <ele>217.88</ele>
        <time>2021-01-07T12:33:09Z</time>
      </trkpt>
      <trkpt lat="46.75997" lon="5.52405">
        <ele>218.36</ele>
        <time>2021-01-07T12:33:41Z</time>
      </trkpt>
    </trkseg>
  </trk>
</gpx>